Welcome to Northern Hawkes Bay. New Zealand.
PWS Header
      nz Flag



Hit Counter


W3C Valid W3C Valid logo


    Wairoa

Select any of the Stations below to visit their websites.










Historic Data from Weather Underground
Select the location of interest below. Wairoa is the default. Please have patience, this Data is slow to load in.
Northern Hawkes Bay Historical Data
Daily Summary for November 6, 2017 Units:  Metric    English   Both
« Previous Day
Next Day »
Daily Weekly Monthly Yearly Custom
  High: Low: Average:
Temperature: 19.6 °C 9.6 °C 14.7 °C
Dew Point: 11.2 °C 3.4 °C 7.7 °C
Humidity: 96% 36% 65%
Wind Speed: 25.6km/h 0.0km/h 3.6km/h
Wind Gust: 33.1km/h - -
Wind- - SW
Pressure: 1017.5 hPa 1008.4 hPa -
Precipitation: 0.0 mm    
Historical Graphs
 
 
Tabular Data for November 6, 2017
Time Temperature Dew Point Pressure Wind Wind Speed Wind Gust Humidity Rainfall Rate (Hourly) solar
00:03 14.2 °C 11.2 °C 1008.4 hPa Calm   3.5 km/h 82% 0.0 mm 0 W/m2
00:08 14.2 °C 11.2 °C 1008.7 hPa Calm   3.5 km/h 82% 0.0 mm 0 W/m2
00:13 14.0 °C 10.8 °C 1008.4 hPa Calm     81% 0.0 mm 0 W/m2
00:18 13.9 °C 10.9 °C 1008.4 hPa Calm     82% 0.0 mm 0 W/m2
00:23 13.7 °C 10.7 °C 1008.4 hPa Calm   1.1 km/h 82% 0.0 mm 0 W/m2
00:28 13.7 °C 10.9 °C 1008.4 hPa Calm   1.1 km/h 83% 0.0 mm 0 W/m2
00:33 13.6 °C 10.9 °C 1008.4 hPa Calm   2.6 km/h 84% 0.0 mm 0 W/m2
00:38 13.5 °C 10.8 °C 1008.4 hPa NW 1.1 km/h 5.0 km/h 84% 0.0 mm 0 W/m2
00:43 13.4 °C 10.8 °C 1008.4 hPa Calm   5.0 km/h 84% 0.0 mm 0 W/m2
00:48 13.4 °C 10.8 °C 1008.4 hPa Calm   3.5 km/h 84% 0.0 mm 0 W/m2
00:53 13.4 °C 10.6 °C 1008.4 hPa Calm   3.5 km/h 83% 0.0 mm 0 W/m2
00:58 13.4 °C 10.6 °C 1008.4 hPa Calm   3.5 km/h 83% 0.0 mm 0 W/m2
01:03 13.4 °C 10.6 °C 1008.4 hPa Calm   3.5 km/h 83% 0.0 mm 0 W/m2
01:08 13.3 °C 10.7 °C 1008.4 hPa Calm   2.6 km/h 84% 0.0 mm 0 W/m2
01:13 13.3 °C 10.7 °C 1008.4 hPa Calm   2.6 km/h 84% 0.0 mm 0 W/m2
01:18 13.2 °C 10.7 °C 1008.4 hPa Calm   1.1 km/h 85% 0.0 mm 0 W/m2
01:23 13.1 °C 10.7 °C 1008.4 hPa Calm     85% 0.0 mm 0 W/m2
01:28 13.3 °C 10.7 °C 1008.4 hPa Calm     84% 0.0 mm 0 W/m2
01:33 13.5 °C 10.5 °C 1008.4 hPa Calm     82% 0.0 mm 0 W/m2
01:38 13.6 °C 10.2 °C 1008.4 hPa Calm     80% 0.0 mm 0 W/m2
01:43 13.7 °C 10.1 °C 1008.4 hPa Calm     79% 0.0 mm 0 W/m2
01:48 13.7 °C 9.9 °C 1008.4 hPa Calm     78% 0.0 mm 0 W/m2
01:53 13.7 °C 9.7 °C 1008.4 hPa Calm     77% 0.0 mm 0 W/m2
01:58 13.6 °C 9.7 °C 1008.4 hPa Calm     77% 0.0 mm 0 W/m2
02:03 13.6 °C 9.7 °C 1008.4 hPa Calm     77% 0.0 mm 0 W/m2
02:08 13.6 °C 9.4 °C 1008.4 hPa Calm     76% 0.0 mm 0 W/m2
02:13 13.4 °C 9.3 °C 1008.4 hPa Calm     76% 0.0 mm 0 W/m2
02:18 13.5 °C 9.3 °C 1008.4 hPa Calm   3.5 km/h 76% 0.0 mm 0 W/m2
02:23 13.4 °C 9.1 °C 1008.4 hPa Calm   3.5 km/h 75% 0.0 mm 0 W/m2
02:28 13.2 °C 8.9 °C 1008.4 hPa Calm   3.5 km/h 75% 0.0 mm 0 W/m2
02:33 13.2 °C 8.9 °C 1008.4 hPa Calm   3.5 km/h 75% 0.0 mm 0 W/m2
02:38 13.2 °C 8.7 °C 1008.4 hPa Calm   3.5 km/h 74% 0.0 mm 0 W/m2
02:43 13.0 °C 8.5 °C 1008.4 hPa Calm   3.5 km/h 74% 0.0 mm 0 W/m2
02:48 12.7 °C 8.2 °C 1008.4 hPa Calm   2.6 km/h 74% 0.0 mm 0 W/m2
02:53 12.5 °C 8.2 °C 1008.4 hPa Calm   2.6 km/h 75% 0.0 mm 0 W/m2
02:58 12.3 °C 8.2 °C 1008.4 hPa NW 1.1 km/h 3.5 km/h 76% 0.0 mm 0 W/m2
03:03 12.2 °C 8.1 °C 1008.7 hPa NW 1.1 km/h 3.5 km/h 76% 0.0 mm 0 W/m2
03:08 12.1 °C 7.8 °C 1008.4 hPa NW 1.1 km/h 6.1 km/h 75% 0.0 mm 0 W/m2
03:13 12.1 °C 7.8 °C 1008.4 hPa NW 2.6 km/h 6.1 km/h 75% 0.0 mm 0 W/m2
03:18 12.2 °C 7.5 °C 1008.4 hPa Calm   7.2 km/h 73% 0.0 mm 0 W/m2
03:23 12.0 °C 7.3 °C 1008.4 hPa Calm   7.2 km/h 73% 0.0 mm 0 W/m2
03:28 11.9 °C 7.2 °C 1008.4 hPa Calm   6.1 km/h 73% 0.0 mm 0 W/m2
03:33 11.7 °C 7.0 °C 1008.4 hPa Calm   2.6 km/h 73% 0.0 mm 0 W/m2
03:38 11.7 °C 7.0 °C 1008.4 hPa Calm   6.1 km/h 73% 0.0 mm 0 W/m2
03:43 11.7 °C 7.0 °C 1008.4 hPa Calm   6.1 km/h 73% 0.0 mm 0 W/m2
03:48 11.6 °C 7.1 °C 1008.7 hPa Calm   2.6 km/h 74% 0.0 mm 0 W/m2
03:53 11.5 °C 7.1 °C 1008.4 hPa Calm   3.5 km/h 74% 0.0 mm 0 W/m2
03:58 11.6 °C 6.9 °C 1008.4 hPa Calm   3.5 km/h 73% 0.0 mm 0 W/m2
04:03 11.5 °C 6.6 °C 1008.4 hPa Calm     72% 0.0 mm 0 W/m2
04:08 11.2 °C 6.3 °C 1008.4 hPa Calm     72% 0.0 mm 0 W/m2
04:13 11.1 °C 6.2 °C 1008.7 hPa Calm     72% 0.0 mm 0 W/m2
04:18 11.0 °C 6.2 °C 1008.7 hPa Calm   2.6 km/h 72% 0.0 mm 0 W/m2
04:23 11.0 °C 6.2 °C 1008.7 hPa Calm   2.6 km/h 72% 0.0 mm 0 W/m2
04:28 10.9 °C 6.3 °C 1008.7 hPa NW 2.6 km/h 5.0 km/h 73% 0.0 mm 0 W/m2
04:33 10.9 °C 6.3 °C 1008.4 hPa NW 1.1 km/h 8.7 km/h 73% 0.0 mm 0 W/m2
04:38 11.1 °C 6.2 °C 1008.4 hPa NW 1.1 km/h 11.1 km/h 72% 0.0 mm 0 W/m2
04:43 11.2 °C 6.3 °C 1008.4 hPa Calm   11.1 km/h 72% 0.0 mm 0 W/m2
04:48 11.0 °C 6.2 °C 1008.7 hPa Calm   7.2 km/h 72% 0.0 mm 0 W/m2
04:53 10.8 °C 6.3 °C 1008.7 hPa NW 1.1 km/h 3.5 km/h 74% 0.0 mm 0 W/m2
04:58 10.7 °C 6.4 °C 1008.7 hPa Calm   5.0 km/h 75% 0.0 mm 0 W/m2
05:03 10.5 °C 6.3 °C 1008.7 hPa NNW 2.6 km/h 5.0 km/h 75% 0.0 mm 0 W/m2
05:08 11.2 °C 6.6 °C 1008.4 hPa NNW 5.0 km/h 13.4 km/h 73% 0.0 mm 0 W/m2
05:13 11.3 °C 6.4 °C 1008.4 hPa NNW 1.1 km/h 13.4 km/h 72% 0.0 mm 0 W/m2
05:18 11.2 °C 6.3 °C 1008.4 hPa North 7.2 km/h 14.8 km/h 72% 0.0 mm 0 W/m2
05:23 11.7 °C 6.6 °C 1008.7 hPa North 7.2 km/h 18.3 km/h 71% 0.0 mm 0 W/m2
05:28 12.0 °C 6.3 °C 1008.7 hPa NNW 3.5 km/h 18.3 km/h 68% 0.0 mm 0 W/m2
05:33 11.8 °C 6.5 °C 1008.7 hPa NNW 5.0 km/h 15.8 km/h 70% 0.0 mm 0 W/m2
05:38 11.6 °C 6.5 °C 1009.0 hPa North 3.5 km/h 8.7 km/h 71% 0.0 mm 0 W/m2
05:43 11.7 °C 6.4 °C 1008.7 hPa North 3.5 km/h 11.1 km/h 70% 0.0 mm 0 W/m2
05:48 11.7 °C 6.4 °C 1009.0 hPa Calm   11.1 km/h 70% 0.0 mm 0 W/m2
05:53 11.6 °C 6.5 °C 1009.0 hPa Calm   11.1 km/h 71% 0.0 mm 0 W/m2
05:58 11.1 °C 6.2 °C 1009.4 hPa Calm   5.0 km/h 72% 0.0 mm 1 W/m2
06:03 11.0 °C 6.3 °C 1009.4 hPa Calm   2.6 km/h 73% 0.0 mm 3 W/m2
06:08 10.9 °C 6.4 °C 1009.0 hPa Calm   2.6 km/h 74% 0.0 mm 6 W/m2
06:13 11.1 °C 6.7 °C 1009.0 hPa NNW 2.6 km/h 6.1 km/h 74% 0.0 mm 9 W/m2
06:18 11.2 °C 6.6 °C 1009.4 hPa Calm   6.1 km/h 73% 0.0 mm 16 W/m2
06:23 11.1 °C 6.4 °C 1009.4 hPa Calm   5.0 km/h 73% 0.0 mm 18 W/m2
06:28 11.2 °C 6.7 °C 1009.7 hPa Calm     74% 0.0 mm 53 W/m2
06:33 12.0 °C 7.3 °C 1009.7 hPa Calm   3.5 km/h 73% 0.0 mm 60 W/m2
06:43 13.6 °C 8.2 °C 1009.7 hPa Calm     70% 0.0 mm 75 W/m2
06:48 14.3 °C 8.1 °C 1010.0 hPa Calm     66% 0.0 mm 81 W/m2
06:53 14.3 °C 7.8 °C 1010.0 hPa Calm     65% 0.0 mm 86 W/m2
06:58 14.6 °C 7.9 °C 1010.0 hPa Calm   1.1 km/h 64% 0.0 mm 91 W/m2
07:03 14.6 °C 7.7 °C 1010.0 hPa Calm   3.5 km/h 63% 0.0 mm 98 W/m2
07:08 14.7 °C 7.9 °C 1010.0 hPa NNW 1.1 km/h 3.5 km/h 64% 0.0 mm 106 W/m2
07:13 14.9 °C 8.2 °C 1010.0 hPa NNW 1.1 km/h 3.5 km/h 64% 0.0 mm 114 W/m2
07:18 15.2 °C 7.5 °C 1010.0 hPa NNW 1.1 km/h 3.5 km/h 60% 0.0 mm 122 W/m2
07:23 15.5 °C 7.6 °C 1010.4 hPa Calm   3.5 km/h 59% 0.0 mm 129 W/m2
07:28 15.8 °C 7.6 °C 1010.4 hPa Calm   3.5 km/h 58% 0.0 mm 140 W/m2
07:33 16.3 °C 7.2 °C 1010.4 hPa Calm   3.5 km/h 55% 0.0 mm 150 W/m2
07:38 16.5 °C 7.2 °C 1010.4 hPa Calm   3.5 km/h 54% 0.0 mm 159 W/m2
07:43 16.6 °C 6.7 °C 1010.4 hPa Calm   7.2 km/h 52% 0.0 mm 169 W/m2
07:48 17.2 °C 7.3 °C 1010.7 hPa Calm   7.2 km/h 52% 0.0 mm 180 W/m2
07:53 17.6 °C 6.8 °C 1010.7 hPa Calm   3.5 km/h 49% 0.0 mm 192 W/m2
07:58 18.4 °C 7.5 °C 1010.7 hPa Calm   3.5 km/h 49% 0.0 mm 204 W/m2
08:03 18.0 °C 6.5 °C 1010.7 hPa Calm   5.0 km/h 47% 0.0 mm 215 W/m2
08:08 18.0 °C 5.9 °C 1010.7 hPa Calm   5.0 km/h 45% 0.0 mm 225 W/m2
08:13 18.4 °C 6.6 °C 1010.7 hPa Calm   3.5 km/h 46% 0.0 mm 238 W/m2
08:18 18.4 °C 6.9 °C 1010.7 hPa Calm   5.0 km/h 47% 0.0 mm 248 W/m2
08:23 18.4 °C 7.2 °C 1010.7 hPa SSW 14.8 km/h 18.3 km/h 48% 0.0 mm 261 W/m2
08:28 17.4 °C 7.2 °C 1010.7 hPa SSW 6.1 km/h 18.3 km/h 51% 0.0 mm 270 W/m2
08:33 17.2 °C 7.8 °C 1011.1 hPa SSW 3.5 km/h 14.8 km/h 54% 0.0 mm 282 W/m2
08:38 17.3 °C 7.3 °C 1011.1 hPa SW 3.5 km/h 12.2 km/h 52% 0.0 mm 296 W/m2
08:43 16.9 °C 6.4 °C 1011.1 hPa SW 3.5 km/h 13.4 km/h 50% 0.0 mm 309 W/m2
08:48 17.2 °C 7.3 °C 1011.1 hPa SSW 9.7 km/h 15.8 km/h 52% 0.0 mm 321 W/m2
08:53 16.8 °C 7.2 °C 1011.1 hPa SSW 6.1 km/h 19.5 km/h 53% 0.0 mm 310 W/m2
08:58 16.8 °C 7.2 °C 1011.4 hPa SW 11.1 km/h 19.5 km/h 53% 0.0 mm 286 W/m2
09:03 16.6 °C 6.7 °C 1011.4 hPa SW 13.4 km/h 27.0 km/h 52% 0.0 mm 353 W/m2
09:08 16.6 °C 7.0 °C 1011.4 hPa SW 11.1 km/h 27.0 km/h 53% 0.0 mm 379 W/m2
09:13 16.6 °C 7.0 °C 1011.4 hPa SW 11.1 km/h 27.0 km/h 53% 0.0 mm 211 W/m2
09:18 16.4 °C 6.5 °C 1011.4 hPa SW 19.5 km/h 28.0 km/h 52% 0.0 mm 415 W/m2
09:23 16.2 °C 6.3 °C 1011.7 hPa SW 15.8 km/h 28.0 km/h 52% 0.0 mm 418 W/m2
09:28 16.3 °C 6.7 °C 1011.7 hPa SW 15.8 km/h 28.0 km/h 53% 0.0 mm 438 W/m2
09:33 16.5 °C 6.6 °C 1011.7 hPa SSW 17.2 km/h 24.5 km/h 52% 0.0 mm 454 W/m2
09:38 16.4 °C 6.8 °C 1011.4 hPa SW 18.3 km/h 28.0 km/h 53% 0.0 mm 494 W/m2
09:43 16.6 °C 6.7 °C 1011.4 hPa SW 14.8 km/h 28.0 km/h 52% 0.0 mm 253 W/m2
09:48 16.1 °C 6.2 °C 1011.4 hPa SW 7.2 km/h 27.0 km/h 52% 0.0 mm 281 W/m2
09:53 16.4 °C 7.1 °C 1011.7 hPa SSW 7.2 km/h 20.9 km/h 54% 0.0 mm 546 W/m2
09:58 16.6 °C 7.0 °C 1011.7 hPa SW 15.8 km/h 21.9 km/h 53% 0.0 mm 428 W/m2
10:03 16.5 °C 6.6 °C 1011.7 hPa WSW 7.2 km/h 21.9 km/h 52% 0.0 mm 427 W/m2
10:08 16.9 °C 7.0 °C 1011.7 hPa SW 14.8 km/h 21.9 km/h 52% 0.0 mm 589 W/m2
10:13 17.1 °C 7.4 °C 1011.7 hPa SW 7.2 km/h 24.5 km/h 53% 0.0 mm 573 W/m2
10:18 17.3 °C 7.3 °C 1012.1 hPa SW 25.6 km/h 31.7 km/h 52% 0.0 mm 356 W/m2
10:23 16.4 °C 6.5 °C 1011.7 hPa SW 13.4 km/h 31.7 km/h 52% 0.0 mm 319 W/m2
10:28 16.3 °C 6.4 °C 1012.1 hPa SW 12.2 km/h 31.7 km/h 52% 0.0 mm 489 W/m2
10:33 16.4 °C 6.5 °C 1011.7 hPa WSW 13.4 km/h 28.0 km/h 52% 0.0 mm 409 W/m2
10:38 16.9 °C 7.0 °C 1011.7 hPa WSW 11.1 km/h 28.0 km/h 52% 0.0 mm 428 W/m2
10:43 16.6 °C 5.6 °C 1012.1 hPa SW 13.4 km/h 23.3 km/h 48% 0.0 mm 513 W/m2
10:48 16.6 °C 4.9 °C 1011.7 hPa SW 7.2 km/h 25.6 km/h 46% 0.0 mm 528 W/m2
10:53 17.1 °C 6.0 °C 1011.7 hPa SW 9.7 km/h 25.6 km/h 48% 0.0 mm 641 W/m2
11:03 17.2 °C 5.5 °C 1012.1 hPa SW 13.4 km/h 33.1 km/h 46% 0.0 mm 698 W/m2
11:08 17.3 °C 5.3 °C 1012.1 hPa SW 12.2 km/h 33.1 km/h 45% 0.0 mm 446 W/m2
11:13 17.3 °C 5.6 °C 1012.1 hPa SW 18.3 km/h 27.0 km/h 46% 0.0 mm 595 W/m2
11:18 17.3 °C 6.5 °C 1012.1 hPa SW 18.3 km/h 27.0 km/h 49% 0.0 mm 785 W/m2
11:24 17.3 °C 5.3 °C 1012.1 hPa SW 17.2 km/h 28.0 km/h 45% 0.0 mm 652 W/m2
11:29 17.2 °C 4.8 °C 1012.1 hPa SSW 9.7 km/h 29.4 km/h 44% 0.0 mm 468 W/m2
11:34 17.5 °C 5.8 °C 1012.1 hPa SW 9.7 km/h 29.4 km/h 46% 0.0 mm 574 W/m2
11:39 17.7 °C 5.3 °C 1012.1 hPa SW 11.1 km/h 24.5 km/h 44% 0.0 mm 354 W/m2
11:44 17.3 °C 4.9 °C 1012.4 hPa SW 7.2 km/h 24.5 km/h 44% 0.0 mm 395 W/m2
11:49 17.5 °C 4.8 °C 1012.4 hPa SW 17.2 km/h 31.7 km/h 43% 0.0 mm 336 W/m2
11:54 17.0 °C 4.7 °C 1012.8 hPa SW 12.2 km/h 31.7 km/h 44% 0.0 mm 394 W/m2
12:12 16.9 °C 4.6 °C 1012.1 hPa SW 7.2 km/h 24.5 km/h 44% 0.0 mm 267 W/m2
12:17 16.9 °C 5.2 °C 1012.1 hPa SSW 11.1 km/h 24.5 km/h 46% 0.0 mm 363 W/m2
12:22 17.0 °C 5.9 °C 1012.1 hPa SSW 12.2 km/h 24.5 km/h 48% 0.0 mm 302 W/m2
12:27 16.9 °C 5.5 °C 1012.1 hPa SW 17.2 km/h 24.5 km/h 47% 0.0 mm 341 W/m2
12:32 17.0 °C 5.3 °C 1012.1 hPa SW 18.3 km/h 24.5 km/h 46% 0.0 mm 271 W/m2
12:37 17.5 °C 5.8 °C 1012.4 hPa SW 13.4 km/h 25.6 km/h 46% 0.0 mm 859 W/m2
12:42 18.0 °C 6.2 °C 1012.1 hPa SW 13.4 km/h 25.6 km/h 46% 0.0 mm 482 W/m2
12:47 17.7 °C 5.6 °C 1012.1 hPa SSW 11.1 km/h 24.5 km/h 45% 0.0 mm 290 W/m2
12:52 17.3 °C 5.3 °C 1012.4 hPa SSW 17.2 km/h 24.5 km/h 45% 0.0 mm 360 W/m2
12:57 17.6 °C 5.2 °C 1012.4 hPa SW 13.4 km/h 25.6 km/h 44% 0.0 mm 298 W/m2
13:02 17.3 °C 4.9 °C 1012.4 hPa SW 13.4 km/h 27.0 km/h 44% 0.0 mm 293 W/m2
13:07 17.3 °C 5.3 °C 1012.4 hPa SW 8.7 km/h 27.0 km/h 45% 0.0 mm 679 W/m2
13:12 18.1 °C 6.6 °C 1012.4 hPa SSW 18.3 km/h 25.6 km/h 47% 0.0 mm 828 W/m2
13:17 18.1 °C 5.3 °C 1012.4 hPa SW 9.7 km/h 21.9 km/h 43% 0.0 mm 728 W/m2
13:23 18.3 °C 6.2 °C 1012.8 hPa SW 12.2 km/h 21.9 km/h 45% 0.0 mm 774 W/m2
13:28 18.1 °C 6.0 °C 1012.4 hPa SW 8.7 km/h 20.9 km/h 45% 0.0 mm 764 W/m2
13:33 18.4 °C 6.6 °C 1012.4 hPa SW 7.2 km/h 20.9 km/h 46% 0.0 mm 757 W/m2
13:38 18.7 °C 6.2 °C 1012.4 hPa SW 14.8 km/h 20.9 km/h 44% 0.0 mm 750 W/m2
13:43 18.4 °C 4.9 °C 1012.4 hPa WSW 9.7 km/h 20.9 km/h 41% 0.0 mm 751 W/m2
13:53 18.5 °C 4.3 °C 1012.4 hPa SSW 11.1 km/h 20.9 km/h 39% 0.0 mm 728 W/m2
13:58 18.5 °C 4.3 °C 1012.4 hPa SSW 11.1 km/h 20.9 km/h 39% 0.0 mm 721 W/m2
14:03 18.8 °C 3.4 °C 1012.4 hPa SSW 6.1 km/h 18.3 km/h 36% 0.0 mm 726 W/m2
14:08 19.3 °C 4.3 °C 1012.4 hPa SSW 5.0 km/h 13.4 km/h 37% 0.0 mm 763 W/m2
14:13 19.2 °C 4.6 °C 1012.4 hPa SSW 3.5 km/h 14.8 km/h 38% 0.0 mm 792 W/m2
14:18 19.5 °C 5.2 °C 1012.4 hPa SSW 2.6 km/h 14.8 km/h 39% 0.0 mm 434 W/m2
14:23 18.9 °C 4.3 °C 1012.4 hPa Calm   14.8 km/h 38% 0.0 mm 265 W/m2
14:28 18.2 °C 5.4 °C 1012.8 hPa SSW 7.2 km/h 17.2 km/h 43% 0.0 mm 201 W/m2
14:33 17.7 °C 4.6 °C 1012.8 hPa SW 2.6 km/h 17.2 km/h 42% 0.0 mm 172 W/m2
14:38 17.5 °C 4.8 °C 1012.8 hPa SW 2.6 km/h 14.8 km/h 43% 0.0 mm 164 W/m2
14:43 17.4 °C 5.3 °C 1012.8 hPa SSW 7.2 km/h 14.8 km/h 45% 0.0 mm 162 W/m2
14:48 17.3 °C 5.6 °C 1012.8 hPa SW 6.1 km/h 15.8 km/h 46% 0.0 mm 594 W/m2
14:53 18.2 °C 6.4 °C 1012.4 hPa SW 2.6 km/h 15.8 km/h 46% 0.0 mm 566 W/m2
14:58 19.2 °C 7.0 °C 1012.4 hPa SSW 6.1 km/h 15.8 km/h 45% 0.0 mm 611 W/m2
15:03 19.3 °C 5.4 °C 1012.8 hPa SSW 3.5 km/h 14.8 km/h 40% 0.0 mm 610 W/m2
15:08 19.6 °C 6.3 °C 1012.4 hPa SSW 8.7 km/h 14.8 km/h 42% 0.0 mm 548 W/m2
15:13 18.8 °C 7.3 °C 1012.4 hPa SSW 6.1 km/h 18.3 km/h 47% 0.0 mm 253 W/m2
15:18 18.8 °C 7.9 °C 1012.8 hPa South 13.4 km/h 18.3 km/h 49% 0.0 mm 148 W/m2
15:23 17.7 °C 6.6 °C 1012.4 hPa South 3.5 km/h 17.2 km/h 48% 0.0 mm 176 W/m2
15:28 17.4 °C 7.4 °C 1012.4 hPa South 1.1 km/h 17.2 km/h 52% 0.0 mm 179 W/m2
15:33 17.5 °C 7.8 °C 1012.4 hPa South 1.1 km/h 14.8 km/h 53% 0.0 mm 215 W/m2
15:38 17.5 °C 7.6 °C 1012.4 hPa SSE 7.2 km/h 12.2 km/h 52% 0.0 mm 234 W/m2
15:43 18.2 °C 7.0 °C 1012.4 hPa SSE 8.7 km/h 12.2 km/h 48% 0.0 mm 234 W/m2
15:48 18.0 °C 6.2 °C 1012.4 hPa SSE 2.6 km/h 11.1 km/h 46% 0.0 mm 215 W/m2
15:53 17.9 °C 7.9 °C 1012.4 hPa SSE 1.1 km/h 8.7 km/h 52% 0.0 mm 200 W/m2
15:58 17.8 °C 8.1 °C 1012.4 hPa SSE 2.6 km/h 8.7 km/h 53% 0.0 mm 182 W/m2
16:03 17.5 °C 7.8 °C 1012.4 hPa SE 2.6 km/h 8.7 km/h 53% 0.0 mm 164 W/m2
16:08 17.2 °C 8.1 °C 1012.4 hPa ESE 2.6 km/h 8.7 km/h 55% 0.0 mm 140 W/m2
16:19 16.7 °C 7.9 °C 1012.8 hPa Calm   11.1 km/h 56% 0.0 mm 126 W/m2
16:24 16.6 °C 7.8 °C 1012.4 hPa SE 1.1 km/h 8.7 km/h 56% 0.0 mm 114 W/m2
16:30 16.5 °C 7.7 °C 1012.8 hPa Calm   7.2 km/h 56% 0.0 mm 79 W/m2
16:32 16.5 °C 7.9 °C 1012.8 hPa SSE 1.1 km/h 7.2 km/h 57% 0.0 mm 69 W/m2
16:40 16.4 °C 8.4 °C 1012.4 hPa Calm   6.1 km/h 59% 0.0 mm 49 W/m2
16:42 16.3 °C 8.5 °C 1012.4 hPa Calm   6.1 km/h 60% 0.0 mm 49 W/m2
16:47 16.1 °C 8.6 °C 1012.4 hPa Calm   6.1 km/h 61% 0.0 mm 47 W/m2
16:52 16.0 °C 8.0 °C 1012.4 hPa Calm   3.5 km/h 59% 0.0 mm 48 W/m2
16:57 16.0 °C 8.0 °C 1012.8 hPa Calm   3.5 km/h 59% 0.0 mm 47 W/m2
17:03 15.8 °C 8.6 °C 1012.8 hPa Calm   5.0 km/h 62% 0.0 mm 49 W/m2
17:08 15.8 °C 8.8 °C 1012.8 hPa Calm   5.0 km/h 63% 0.0 mm 43 W/m2
17:13 15.7 °C 8.9 °C 1012.8 hPa Calm   1.1 km/h 64% 0.0 mm 47 W/m2
17:18 15.5 °C 8.7 °C 1012.8 hPa Calm   3.5 km/h 64% 0.0 mm 46 W/m2
17:23 15.5 °C 8.5 °C 1012.8 hPa Calm   3.5 km/h 63% 0.0 mm 45 W/m2
17:28 15.4 °C 7.9 °C 1012.8 hPa Calm     61% 0.0 mm 44 W/m2
17:33 15.4 °C 7.9 °C 1012.8 hPa Calm     61% 0.0 mm 52 W/m2
17:38 15.4 °C 8.6 °C 1012.8 hPa Calm     64% 0.0 mm 70 W/m2
17:43 15.5 °C 8.9 °C 1013.1 hPa Calm     65% 0.0 mm 83 W/m2
17:48 15.7 °C 8.9 °C 1013.1 hPa Calm     64% 0.0 mm 92 W/m2
17:53 15.9 °C 9.6 °C 1013.1 hPa Calm     66% 0.0 mm 272 W/m2
17:58 17.6 °C 10.2 °C 1013.1 hPa Calm     62% 0.0 mm 153 W/m2
18:03 17.6 °C 8.4 °C 1013.1 hPa Calm     55% 0.0 mm 129 W/m2
18:08 17.0 °C 8.4 °C 1013.1 hPa Calm     57% 0.0 mm 108 W/m2
18:13 16.7 °C 8.7 °C 1013.4 hPa Calm   1.1 km/h 59% 0.0 mm 74 W/m2
18:18 16.1 °C 8.1 °C 1013.4 hPa North 3.5 km/h 7.2 km/h 59% 0.0 mm 56 W/m2
18:23 15.7 °C 8.2 °C 1013.4 hPa Calm   7.2 km/h 61% 0.0 mm 44 W/m2
18:28 15.5 °C 8.7 °C 1013.4 hPa North 1.1 km/h 7.2 km/h 64% 0.0 mm 39 W/m2
18:33 15.3 °C 8.8 °C 1013.4 hPa North 3.5 km/h 7.2 km/h 65% 0.0 mm 38 W/m2
18:38 15.1 °C 8.8 °C 1013.4 hPa Calm   7.2 km/h 66% 0.0 mm 35 W/m2
18:43 14.9 °C 8.8 °C 1013.4 hPa Calm   7.2 km/h 67% 0.0 mm 33 W/m2
18:48 14.8 °C 8.7 °C 1013.4 hPa Calm   7.2 km/h 67% 0.0 mm 32 W/m2
18:53 14.7 °C 8.7 °C 1013.8 hPa Calm   7.2 km/h 67% 0.0 mm 25 W/m2
18:58 14.7 °C 8.8 °C 1013.8 hPa NNE 3.5 km/h 6.1 km/h 68% 0.0 mm 24 W/m2
19:03 14.6 °C 8.8 °C 1014.1 hPa North 2.6 km/h 7.2 km/h 68% 0.0 mm 20 W/m2
19:08 14.4 °C 8.8 °C 1014.1 hPa North 2.6 km/h 7.2 km/h 69% 0.0 mm 18 W/m2
19:13 14.3 °C 8.7 °C 1014.1 hPa Calm   7.2 km/h 69% 0.0 mm 14 W/m2
19:18 14.3 °C 8.7 °C 1014.1 hPa Calm   6.1 km/h 69% 0.0 mm 11 W/m2
19:23 14.2 °C 8.6 °C 1014.1 hPa Calm   6.1 km/h 69% 0.0 mm 11 W/m2
19:28 14.2 °C 8.8 °C 1014.1 hPa Calm   6.1 km/h 70% 0.0 mm 12 W/m2
19:33 14.2 °C 9.0 °C 1014.4 hPa North 1.1 km/h 6.1 km/h 71% 0.0 mm 7 W/m2
19:38 14.1 °C 8.9 °C 1014.4 hPa NNE 2.6 km/h 6.1 km/h 71% 0.0 mm 5 W/m2
19:44 14.0 °C 8.8 °C 1014.4 hPa NNE 1.1 km/h 5.0 km/h 71% 0.0 mm 3 W/m2
19:49 13.9 °C 8.7 °C 1014.8 hPa Calm   7.2 km/h 71% 0.0 mm 0 W/m2
19:54 13.9 °C 8.7 °C 1014.8 hPa Calm   7.2 km/h 71% 0.0 mm 0 W/m2
19:59 13.6 °C 8.7 °C 1014.8 hPa Calm   5.0 km/h 72% 0.0 mm 0 W/m2
20:04 13.6 °C 8.8 °C 1014.8 hPa Calm   5.0 km/h 73% 0.0 mm 0 W/m2
20:09 13.6 °C 9.1 °C 1014.8 hPa Calm   5.0 km/h 74% 0.0 mm 0 W/m2
20:14 13.5 °C 9.2 °C 1015.1 hPa Calm   3.5 km/h 75% 0.0 mm 0 W/m2
20:19 13.3 °C 8.9 °C 1015.1 hPa Calm   3.5 km/h 75% 0.0 mm 0 W/m2
20:24 13.2 °C 8.9 °C 1015.5 hPa Calm   2.6 km/h 75% 0.0 mm 0 W/m2
20:29 13.1 °C 8.8 °C 1015.1 hPa Calm   1.1 km/h 75% 0.0 mm 0 W/m2
20:34 13.0 °C 8.9 °C 1015.1 hPa Calm   1.1 km/h 76% 0.0 mm 0 W/m2
20:50 12.7 °C 8.9 °C 1015.5 hPa North 1.1 km/h 3.5 km/h 78% 0.0 mm 0 W/m2
20:55 12.6 °C 9.1 °C 1015.8 hPa Calm   3.5 km/h 79% 0.0 mm 0 W/m2
21:00 12.5 °C 9.2 °C 1015.8 hPa Calm   5.0 km/h 80% 0.0 mm 0 W/m2
21:05 12.6 °C 9.2 °C 1015.8 hPa NNE 2.6 km/h 7.2 km/h 80% 0.0 mm 0 W/m2
21:10 12.6 °C 9.2 °C 1016.1 hPa North 3.5 km/h 8.7 km/h 80% 0.0 mm 0 W/m2
21:15 12.5 °C 9.3 °C 1015.8 hPa Calm   8.7 km/h 81% 0.0 mm 0 W/m2
21:20 12.4 °C 9.2 °C 1016.1 hPa Calm   8.7 km/h 81% 0.0 mm 0 W/m2
21:25 12.3 °C 9.1 °C 1016.1 hPa Calm   5.0 km/h 81% 0.0 mm 0 W/m2
21:30 12.2 °C 9.1 °C 1016.1 hPa Calm   5.0 km/h 81% 0.0 mm 0 W/m2
21:35 12.1 °C 9.1 °C 1016.1 hPa Calm   5.0 km/h 82% 0.0 mm 0 W/m2
21:40 11.9 °C 9.1 °C 1016.1 hPa Calm   3.5 km/h 83% 0.0 mm 0 W/m2
21:45 11.8 °C 9.2 °C 1016.1 hPa Calm   3.5 km/h 84% 0.0 mm 0 W/m2
21:50 11.7 °C 9.1 °C 1016.1 hPa Calm   3.5 km/h 84% 0.0 mm 0 W/m2
21:55 11.6 °C 9.2 °C 1016.5 hPa Calm   1.1 km/h 85% 0.0 mm 0 W/m2
22:00 11.6 °C 9.3 °C 1016.5 hPa ENE 2.6 km/h 11.1 km/h 86% 0.0 mm 0 W/m2
22:05 11.7 °C 9.3 °C 1016.5 hPa Calm   11.1 km/h 85% 0.0 mm 0 W/m2
22:10 11.8 °C 9.4 °C 1016.5 hPa ENE 2.6 km/h 8.7 km/h 85% 0.0 mm 0 W/m2
22:15 11.8 °C 9.2 °C 1016.5 hPa Calm   8.7 km/h 84% 0.0 mm 0 W/m2
22:20 11.7 °C 8.9 °C 1016.5 hPa Calm   5.0 km/h 83% 0.0 mm 0 W/m2
22:25 11.5 °C 8.7 °C 1016.8 hPa Calm   5.0 km/h 83% 0.0 mm 0 W/m2
22:30 11.2 °C 8.6 °C 1016.8 hPa Calm     84% 0.0 mm 0 W/m2
22:35 11.0 °C 8.4 °C 1016.5 hPa Calm   1.1 km/h 84% 0.0 mm 0 W/m2
22:40 10.9 °C 8.7 °C 1016.8 hPa Calm   1.1 km/h 86% 0.0 mm 0 W/m2
22:45 10.8 °C 8.7 °C 1016.8 hPa Calm     87% 0.0 mm 0 W/m2
22:50 10.7 °C 8.6 °C 1016.5 hPa Calm     87% 0.0 mm 0 W/m2
22:55 10.5 °C 8.6 °C 1016.5 hPa Calm     88% 0.0 mm 0 W/m2
23:00 10.4 °C 8.7 °C 1016.8 hPa Calm     89% 0.0 mm 0 W/m2
23:05 10.2 °C 8.6 °C 1016.5 hPa Calm   2.6 km/h 90% 0.0 mm 0 W/m2
23:10 10.2 °C 8.8 °C 1016.5 hPa Calm   2.6 km/h 91% 0.0 mm 0 W/m2
23:15 10.1 °C 8.9 °C 1016.8 hPa Calm   1.1 km/h 92% 0.0 mm 0 W/m2
23:20 10.0 °C 8.9 °C 1016.8 hPa Calm   5.0 km/h 93% 0.0 mm 0 W/m2
23:25 10.0 °C 8.9 °C 1016.8 hPa North 3.5 km/h 6.1 km/h 93% 0.0 mm 0 W/m2
23:30 10.0 °C 9.1 °C 1016.8 hPa NNW 3.5 km/h 7.2 km/h 94% 0.0 mm 0 W/m2
23:35 10.0 °C 9.1 °C 1016.8 hPa NW 7.2 km/h 8.7 km/h 94% 0.0 mm 0 W/m2
23:40 9.9 °C 9.1 °C 1017.2 hPa NW 5.0 km/h 8.7 km/h 95% 0.0 mm 0 W/m2
23:50 9.6 °C 9.0 °C 1017.5 hPa NNW 2.6 km/h 8.7 km/h 96% 0.0 mm 0 W/m2
Northern Hawkes Bay. New Zealand Historic Data
Compliments of Weather Underground - 2 mb